createdAt,value
2023-02-02T00:02:02.556Z,5.72
2023-02-02T00:04:35.189Z,6.50
2023-02-02T00:07:03.063Z,6.10
2023-02-02T00:09:31.645Z,5.93
2023-02-02T00:11:59.838Z,7.03
2023-02-02T00:14:26.836Z,4.50
2023-02-02T00:16:54.782Z,3.83
2023-02-02T00:19:32.597Z,3.55
2023-02-02T00:21:59.629Z,3.67
2023-02-02T00:24:26.318Z,3.70
2023-02-02T00:26:58.290Z,4.43
2023-02-02T00:29:27.371Z,3.58
2023-02-02T00:31:54.251Z,4.07
2023-02-02T00:34:21.679Z,4.00
2023-02-02T00:36:49.481Z,4.55
2023-02-02T00:39:19.600Z,3.80
2023-02-02T00:41:46.707Z,3.88
2023-02-02T00:44:32.676Z,4.32
2023-02-02T00:46:59.326Z,4.32
2023-02-02T00:49:26.394Z,4.45
2023-02-02T00:51:53.084Z,5.10
2023-02-02T00:54:19.842Z,4.68
2023-02-02T00:56:46.850Z,5.13
2023-02-02T00:59:13.798Z,4.68
2023-02-02T01:04:26.855Z,5.10
2023-02-02T01:06:53.885Z,4.68
2023-02-02T01:09:20.725Z,4.88
2023-02-02T01:11:47.555Z,5.50
2023-02-02T01:14:14.335Z,4.95
2023-02-02T01:16:41.159Z,5.45
2023-02-02T01:19:08.278Z,5.25
2023-02-02T01:21:35.294Z,4.93
2023-02-02T01:24:02.095Z,5.30
2023-02-02T01:26:29.418Z,4.95
2023-02-02T01:28:56.223Z,4.93
2023-02-02T01:31:23.322Z,5.05
2023-02-02T01:33:50.817Z,4.50
2023-02-02T01:36:20.891Z,4.90
2023-02-02T01:38:48.916Z,5.38
2023-02-02T01:41:18.973Z,6.00
2023-02-02T01:43:45.698Z,5.60
2023-02-02T01:46:14.303Z,5.57
2023-02-02T01:48:44.648Z,5.50
2023-02-02T01:51:17.473Z,6.45
2023-02-02T01:53:46.629Z,5.20
2023-02-02T01:56:17.902Z,5.70
2023-02-02T01:58:46.067Z,5.57
2023-02-02T02:01:14.997Z,5.63
2023-02-02T02:03:42.001Z,6.35
2023-02-02T02:06:13.246Z,6.30
2023-02-02T02:08:42.355Z,5.60
2023-02-02T02:11:09.191Z,6.03
2023-02-02T02:13:56.978Z,5.97
2023-02-02T02:16:32.379Z,5.45
2023-02-02T02:19:20.883Z,5.53
2023-02-02T02:22:16.062Z,5.75
2023-02-02T02:25:01.133Z,5.93
2023-02-02T02:28:07.061Z,5.80
2023-02-02T02:30:39.930Z,6.18
2023-02-02T02:33:27.785Z,6.22
2023-02-02T02:36:06.595Z,6.78
2023-02-02T02:38:49.256Z,6.30
2023-02-02T02:41:29.463Z,6.05
2023-02-02T02:44:01.384Z,6.93
2023-02-02T02:46:28.674Z,6.47
2023-02-02T02:48:58.817Z,5.50
2023-02-02T02:51:44.386Z,6.63
2023-02-02T02:54:14.891Z,5.57
2023-02-02T02:57:04.788Z,6.10
2023-02-02T02:59:43.341Z,6.40
2023-02-02T03:02:10.074Z,5.80
2023-02-02T03:05:07.088Z,6.25
2023-02-02T03:07:48.856Z,6.25
2023-02-02T03:10:19.330Z,5.80
2023-02-02T03:12:51.261Z,5.20
2023-02-02T03:15:19.261Z,6.15
2023-02-02T03:17:52.175Z,6.20
2023-02-02T03:20:19.230Z,6.05
2023-02-02T03:22:45.994Z,6.05
2023-02-02T03:25:12.914Z,5.93
2023-02-02T03:27:40.088Z,6.00
2023-02-02T03:30:12.505Z,6.05
2023-02-02T03:32:40.176Z,6.60
2023-02-02T03:35:07.472Z,6.28
2023-02-02T03:37:34.510Z,6.32
2023-02-02T03:40:01.414Z,5.57
2023-02-02T03:42:28.359Z,6.18
2023-02-02T03:44:55.116Z,5.43
2023-02-02T03:47:22.057Z,6.25
2023-02-02T03:49:49.024Z,6.10
2023-02-02T03:52:15.733Z,6.28
2023-02-02T03:54:42.678Z,5.80
2023-02-02T03:57:09.460Z,6.30
2023-02-02T03:59:36.365Z,6.28
2023-02-02T04:02:03.164Z,5.80
2023-02-02T04:04:30.503Z,5.82
2023-02-02T04:06:58.748Z,5.43
2023-02-02T04:09:26.052Z,6.22
2023-02-02T04:11:53.154Z,6.93
2023-02-02T04:14:20.063Z,6.85
2023-02-02T04:16:46.973Z,6.95
2023-02-02T04:19:14.217Z,6.78
2023-02-02T04:21:41.323Z,7.35
2023-02-02T04:24:11.684Z,7.38
2023-02-02T04:26:38.803Z,7.18
2023-02-02T04:29:05.589Z,6.70
2023-02-02T04:31:33.320Z,6.80
2023-02-02T04:34:00.825Z,6.72
2023-02-02T04:36:27.835Z,6.65
2023-02-02T04:38:55.483Z,7.57
2023-02-02T04:41:23.458Z,6.97
2023-02-02T04:43:50.311Z,5.75
2023-02-02T04:46:17.203Z,7.03
2023-02-02T04:48:44.295Z,7.15
2023-02-02T04:51:13.539Z,7.35
2023-02-02T04:53:41.733Z,6.07
2023-02-02T04:56:12.858Z,6.00
2023-02-02T04:58:39.701Z,6.55
2023-02-02T05:01:18.002Z,7.20
2023-02-02T05:03:45.929Z,7.38
2023-02-02T05:06:15.896Z,6.85
2023-02-02T05:08:45.954Z,6.43
2023-02-02T05:11:15.716Z,6.13
2023-02-02T05:13:49.292Z,6.05
2023-02-02T05:16:16.271Z,5.78
2023-02-02T05:18:43.725Z,6.38
2023-02-02T05:21:10.548Z,6.43
2023-02-02T05:23:37.297Z,6.47
2023-02-02T05:26:04.342Z,6.80
2023-02-02T05:28:31.482Z,6.07
2023-02-02T05:30:58.509Z,5.75
2023-02-02T05:33:25.295Z,6.05
2023-02-02T05:35:53.459Z,5.93
2023-02-02T05:38:20.323Z,6.28
2023-02-02T05:40:49.172Z,5.95
2023-02-02T05:43:16.021Z,6.28
2023-02-02T05:45:43.088Z,5.07
2023-02-02T05:48:14.441Z,6.18
2023-02-02T05:50:55.359Z,5.78
2023-02-02T05:53:22.221Z,5.97
2023-02-02T05:55:49.127Z,5.93
2023-02-02T05:58:16.055Z,6.63
2023-02-02T06:00:42.833Z,6.18
2023-02-02T06:03:09.769Z,7.32
2023-02-02T06:05:36.619Z,6.13
2023-02-02T06:08:03.435Z,6.60
2023-02-02T06:10:31.655Z,5.97
2023-02-02T06:12:58.901Z,6.45
2023-02-02T06:15:27.832Z,6.45
2023-02-02T06:17:54.891Z,7.18
2023-02-02T06:20:22.549Z,7.05
2023-02-02T06:22:49.549Z,6.90
2023-02-02T06:25:16.393Z,6.18
2023-02-02T06:27:45.558Z,6.10
2023-02-02T06:30:13.552Z,5.47
2023-02-02T06:32:40.343Z,6.32
2023-02-02T06:35:07.844Z,6.30
2023-02-02T06:37:34.645Z,8.48
2023-02-02T06:40:01.586Z,9.35
2023-02-02T06:42:28.651Z,9.40
2023-02-02T06:45:42.957Z,7.93
2023-02-02T06:48:12.361Z,6.03
2023-02-02T06:50:39.240Z,5.47
2023-02-02T06:53:06.808Z,5.22
2023-02-02T06:55:36.242Z,4.68
2023-02-02T06:58:03.195Z,4.40
2023-02-02T07:00:35.450Z,4.38
2023-02-02T07:03:14.495Z,4.47
2023-02-02T07:05:46.398Z,4.28
2023-02-02T07:08:15.784Z,4.53
2023-02-02T07:11:12.859Z,4.38
2023-02-02T07:13:44.685Z,4.88
2023-02-02T07:20:02.119Z,4.38
2023-02-02T07:22:28.763Z,3.78
2023-02-02T07:24:55.323Z,5.40
2023-02-02T07:27:21.953Z,4.00
2023-02-02T07:29:48.533Z,4.15
2023-02-02T07:32:15.111Z,4.07
2023-02-02T07:34:42.647Z,4.30
2023-02-02T07:37:10.490Z,4.28
2023-02-02T07:39:37.115Z,3.78
2023-02-02T07:42:05.702Z,4.32
2023-02-02T07:44:32.370Z,4.88
2023-02-02T07:46:59.056Z,6.85
2023-02-02T07:49:25.658Z,8.73
2023-02-02T07:51:52.277Z,6.80
2023-02-02T07:54:18.980Z,3.45
2023-02-02T07:56:45.636Z,3.90
2023-02-02T07:59:12.260Z,3.08
2023-02-02T08:01:38.955Z,2.83
2023-02-02T08:04:06.166Z,3.60
2023-02-02T08:06:38.024Z,3.40
2023-02-02T08:09:10.247Z,3.45
2023-02-02T08:11:38.203Z,3.10
2023-02-02T08:14:06.008Z,3.45
2023-02-02T08:16:34.299Z,3.00
2023-02-02T08:19:01.371Z,3.67
2023-02-02T08:21:28.138Z,3.58
2023-02-02T08:23:55.047Z,3.55
2023-02-02T08:26:27.292Z,3.80
2023-02-02T08:28:57.381Z,3.75
2023-02-02T08:31:27.166Z,3.50
2023-02-02T08:33:54.954Z,3.47
2023-02-02T08:36:23.624Z,3.88
2023-02-02T08:38:50.861Z,3.65
2023-02-02T08:41:23.458Z,3.25
2023-02-02T08:43:51.193Z,3.33
2023-02-02T08:46:20.133Z,3.63
2023-02-02T08:48:48.232Z,3.10
2023-02-02T08:51:18.517Z,3.38
2023-02-02T08:53:46.683Z,3.88
2023-02-02T08:56:18.968Z,3.47
2023-02-02T08:58:47.552Z,3.55
2023-02-02T09:01:18.688Z,3.60
2023-02-02T09:03:45.971Z,3.90
2023-02-02T09:06:18.159Z,4.30
2023-02-02T09:08:46.084Z,3.60
2023-02-02T09:11:16.470Z,3.58
2023-02-02T09:13:46.556Z,3.95
2023-02-02T09:16:16.142Z,4.47
2023-02-02T09:18:43.730Z,4.18
2023-02-02T09:21:13.527Z,5.88
2023-02-02T09:23:41.930Z,5.30
2023-02-02T09:26:11.421Z,6.45
2023-02-02T09:28:40.380Z,5.80
2023-02-02T09:31:07.860Z,7.43
2023-02-02T09:33:34.827Z,5.68
2023-02-02T09:36:09.561Z,6.97
2023-02-02T09:38:36.754Z,5.35
2023-02-02T09:41:33.589Z,4.15
2023-02-02T09:44:02.804Z,4.28
2023-02-02T09:46:51.239Z,4.88
2023-02-02T09:49:23.355Z,4.90
2023-02-02T09:51:58.728Z,4.97
2023-02-02T09:54:40.971Z,5.00
2023-02-02T09:57:17.934Z,5.45
2023-02-02T09:59:47.723Z,4.60
2023-02-02T10:02:22.453Z,6.32
2023-02-02T10:04:55.373Z,4.43
2023-02-02T10:07:32.627Z,4.57
2023-02-02T10:10:05.285Z,5.40
2023-02-02T10:12:47.512Z,5.30
2023-02-02T10:15:46.415Z,5.03
2023-02-02T10:18:31.391Z,5.43
2023-02-02T10:21:01.110Z,4.78
2023-02-02T10:23:33.035Z,5.25
2023-02-02T10:26:23.249Z,4.90
2023-02-02T10:29:05.867Z,5.72
2023-02-02T10:31:49.961Z,4.78
2023-02-02T10:34:41.590Z,5.50
2023-02-02T10:37:28.449Z,5.22
2023-02-02T10:40:17.982Z,5.53
2023-02-02T10:43:21.533Z,5.30
2023-02-02T10:45:51.174Z,5.22
2023-02-02T10:48:23.557Z,5.70
2023-02-02T10:50:54.367Z,4.90
2023-02-02T10:53:22.922Z,4.43
2023-02-02T10:56:12.130Z,5.40
2023-02-02T10:59:15.908Z,4.82
2023-02-02T11:01:42.911Z,3.70
2023-02-02T11:04:29.442Z,4.13
2023-02-02T11:06:56.600Z,4.32
2023-02-02T11:09:28.691Z,4.60
2023-02-02T11:12:04.679Z,4.50
2023-02-02T11:14:44.985Z,4.60
2023-02-02T11:17:23.776Z,4.75
2023-02-02T11:19:51.857Z,5.00
2023-02-02T11:22:25.941Z,4.85
2023-02-02T11:27:27.079Z,4.75
2023-02-02T11:29:59.516Z,4.63
2023-02-02T11:32:30.123Z,4.72
2023-02-02T11:35:02.746Z,4.75
2023-02-02T11:37:33.660Z,5.00
2023-02-02T11:40:37.717Z,4.57
2023-02-02T11:43:15.079Z,5.47
2023-02-02T11:45:43.688Z,5.25
2023-02-02T11:48:22.644Z,5.43
2023-02-02T11:50:53.853Z,5.60
2023-02-02T11:53:36.967Z,6.22
2023-02-02T11:56:10.807Z,6.18
2023-02-02T11:58:49.555Z,6.55
2023-02-02T12:01:35.732Z,5.88
2023-02-02T12:04:22.534Z,4.95
2023-02-02T12:06:49.237Z,6.18
2023-02-02T12:09:25.256Z,5.82
2023-02-02T12:12:07.363Z,6.32
2023-02-02T12:14:46.723Z,6.00
2023-02-02T12:17:22.312Z,6.43
2023-02-02T12:20:08.473Z,7.60
2023-02-02T12:22:53.445Z,8.10
2023-02-02T12:25:27.331Z,8.50
2023-02-02T12:28:11.569Z,6.90
2023-02-02T12:31:08.261Z,7.97
2023-02-02T12:33:56.519Z,6.75
2023-02-02T12:36:44.122Z,7.10
2023-02-02T12:39:25.979Z,6.47
2023-02-02T12:42:17.316Z,7.35
2023-02-02T12:44:51.150Z,6.60
2023-02-02T12:47:44.606Z,6.45
2023-02-02T12:50:35.994Z,6.80
2023-02-02T12:53:33.640Z,6.18
2023-02-02T12:56:12.444Z,6.45
2023-02-02T12:58:48.932Z,7.18
2023-02-02T13:01:48.783Z,6.32
2023-02-02T13:04:37.211Z,5.75
2023-02-02T13:07:32.956Z,7.22
2023-02-02T13:10:15.377Z,8.02
2023-02-02T13:12:51.901Z,8.82
2023-02-02T13:15:27.704Z,7.95
2023-02-02T13:17:58.403Z,7.20
2023-02-02T13:20:32.005Z,8.45
2023-02-02T13:23:03.388Z,7.70
2023-02-02T13:25:36.358Z,6.90
2023-02-02T13:28:07.254Z,6.75
2023-02-02T13:30:40.467Z,6.43
2023-02-02T13:33:24.185Z,5.53
2023-02-02T13:35:58.259Z,5.87
2023-02-02T13:38:27.588Z,5.18
2023-02-02T13:40:56.163Z,4.50
2023-02-02T13:43:54.594Z,4.40
2023-02-02T13:46:44.698Z,4.57
2023-02-02T13:49:35.066Z,4.72
2023-02-02T13:52:20.396Z,4.13
2023-02-02T13:55:14.310Z,4.57
2023-02-02T13:57:59.317Z,5.60
2023-02-02T14:00:36.427Z,6.55
2023-02-02T14:03:23.442Z,6.03
2023-02-02T14:06:18.104Z,6.65
2023-02-02T14:08:49.225Z,7.30
2023-02-02T14:11:21.845Z,7.72
2023-02-02T14:14:10.642Z,5.57
2023-02-02T14:16:37.313Z,8.25
2023-02-02T14:19:06.642Z,6.50
2023-02-02T14:21:33.549Z,6.47
2023-02-02T14:24:24.528Z,6.50
2023-02-02T14:26:52.586Z,7.10
2023-02-02T14:29:31.889Z,9.48
2023-02-02T14:32:27.911Z,7.60
2023-02-02T14:35:14.392Z,7.78
2023-02-02T14:37:50.678Z,7.53
2023-02-02T14:40:32.872Z,7.13
2023-02-02T14:43:45.125Z,6.75
2023-02-02T14:46:15.108Z,7.68
2023-02-02T14:48:48.239Z,7.80
2023-02-02T14:51:46.040Z,8.65
2023-02-02T14:54:24.371Z,8.25
2023-02-02T14:56:56.676Z,7.50
2023-02-02T14:59:28.614Z,7.22
2023-02-02T15:02:24.600Z,7.90
2023-02-02T15:04:51.368Z,6.70
2023-02-02T15:07:24.118Z,6.47
2023-02-02T15:09:57.011Z,5.90
2023-02-02T15:12:39.625Z,6.68
2023-02-02T15:15:22.770Z,7.85
2023-02-02T15:18:13.433Z,6.93
2023-02-02T15:20:48.992Z,6.30
2023-02-02T15:23:50.834Z,6.68
2023-02-02T15:26:40.772Z,6.55
2023-02-02T15:29:16.921Z,13.00
2023-02-02T15:31:46.678Z,17.42
2023-02-02T15:34:25.664Z,8.50
2023-02-02T15:36:56.834Z,18.85
2023-02-02T15:39:41.762Z,14.93
2023-02-02T15:42:36.957Z,11.07
2023-02-02T15:45:04.065Z,9.30
2023-02-02T15:47:39.707Z,9.75
2023-02-02T15:50:19.129Z,9.90
2023-02-02T15:52:51.303Z,7.60
2023-02-02T15:55:29.153Z,7.60
2023-02-02T15:57:56.205Z,6.78
2023-02-02T16:00:38.192Z,7.88
2023-02-02T16:03:04.845Z,6.78
2023-02-02T16:05:31.716Z,6.60
2023-02-02T16:08:06.025Z,6.07
2023-02-02T16:10:34.473Z,6.05
2023-02-02T16:13:01.800Z,7.38
2023-02-02T16:15:30.835Z,7.45
2023-02-02T16:18:13.677Z,7.50
2023-02-02T16:20:41.779Z,6.63
2023-02-02T16:23:15.566Z,6.90
2023-02-02T16:25:53.235Z,6.85
2023-02-02T16:28:22.263Z,5.93
2023-02-02T16:30:51.813Z,5.25
2023-02-02T16:33:37.349Z,5.15
2023-02-02T16:36:24.332Z,5.22
2023-02-02T16:38:53.271Z,6.28
2023-02-02T16:41:34.434Z,6.45
2023-02-02T16:44:39.471Z,6.50
2023-02-02T16:47:08.150Z,6.65
2023-02-02T16:49:36.349Z,6.32
2023-02-02T16:52:18.254Z,5.72
2023-02-02T16:54:54.268Z,6.32
2023-02-02T16:57:25.665Z,9.98
2023-02-02T16:59:56.232Z,8.32
2023-02-02T17:02:46.475Z,6.93
2023-02-02T17:05:48.675Z,6.28
2023-02-02T17:08:27.041Z,6.75
2023-02-02T17:11:21.555Z,7.07
2023-02-02T17:13:48.534Z,6.07
2023-02-02T17:16:24.553Z,6.55
2023-02-02T17:18:52.033Z,5.88
2023-02-02T17:21:22.864Z,5.45
2023-02-02T17:23:52.389Z,5.53
2023-02-02T17:26:19.703Z,5.43
2023-02-02T17:28:46.870Z,5.93
2023-02-02T17:31:16.006Z,6.07
2023-02-02T17:33:45.381Z,5.82
2023-02-02T17:36:13.504Z,5.30
2023-02-02T17:38:40.540Z,5.65
2023-02-02T17:41:07.516Z,5.85
2023-02-02T17:43:34.165Z,5.70
2023-02-02T17:46:02.697Z,6.82
2023-02-02T17:48:29.761Z,7.78
2023-02-02T17:50:56.371Z,6.80
2023-02-02T17:53:23.235Z,7.00
2023-02-02T17:55:51.612Z,7.13
2023-02-02T17:58:18.776Z,7.10
2023-02-02T18:00:55.220Z,8.30
2023-02-02T18:03:36.087Z,8.40
2023-02-02T18:06:03.534Z,10.25
2023-02-02T18:08:31.401Z,10.95
2023-02-02T18:10:59.502Z,10.18
2023-02-02T18:13:26.471Z,8.02
2023-02-02T18:15:55.193Z,8.45
2023-02-02T18:18:22.197Z,8.32
2023-02-02T18:20:51.137Z,9.13
2023-02-02T18:23:18.872Z,9.73
2023-02-02T18:25:45.849Z,10.95
2023-02-02T18:28:16.753Z,10.27
2023-02-02T18:30:43.666Z,8.38
2023-02-02T18:33:11.885Z,9.30
2023-02-02T18:35:42.706Z,9.23
2023-02-02T18:38:09.910Z,9.13
2023-02-02T18:40:36.976Z,8.48
2023-02-02T18:43:04.094Z,8.43
2023-02-02T18:45:30.706Z,8.93
2023-02-02T18:47:57.361Z,8.52
2023-02-02T18:50:24.398Z,7.97
2023-02-02T18:52:51.228Z,8.77
2023-02-02T18:55:17.838Z,8.05
2023-02-02T18:57:44.629Z,7.40
2023-02-02T19:00:11.950Z,7.78
2023-02-02T19:02:38.916Z,7.00
2023-02-02T19:05:25.609Z,7.60
2023-02-02T19:07:55.698Z,7.15
2023-02-02T19:10:24.912Z,7.93
2023-02-02T19:13:02.950Z,8.13
2023-02-02T19:15:34.199Z,9.55
2023-02-02T19:18:01.155Z,9.35
2023-02-02T19:20:29.662Z,9.90
2023-02-02T19:23:10.669Z,10.10
2023-02-02T19:25:37.483Z,10.18
2023-02-02T19:28:17.493Z,9.13
2023-02-02T19:30:45.654Z,9.35
2023-02-02T19:33:14.677Z,7.90
2023-02-02T19:35:45.058Z,8.30
2023-02-02T19:38:17.325Z,8.13
2023-02-02T19:40:45.073Z,7.13
2023-02-02T19:43:24.198Z,6.95
2023-02-02T19:45:50.938Z,6.87
2023-02-02T19:48:20.376Z,6.53
2023-02-02T19:50:47.248Z,6.65
2023-02-02T19:53:23.373Z,6.15
2023-02-02T19:55:53.107Z,5.15
2023-02-02T19:58:26.427Z,5.45
2023-02-02T20:00:55.907Z,5.73
2023-02-02T20:03:43.289Z,5.68
2023-02-02T20:06:16.974Z,5.63
2023-02-02T20:08:44.360Z,6.03
2023-02-02T20:11:40.906Z,5.50
2023-02-02T20:14:19.308Z,5.20
2023-02-02T20:16:52.154Z,4.97
2023-02-02T20:19:24.279Z,5.10
2023-02-02T20:21:52.746Z,5.32
2023-02-02T20:24:28.285Z,5.15
2023-02-02T20:26:58.630Z,7.32
2023-02-02T20:29:40.277Z,9.25
2023-02-02T20:32:25.942Z,10.25
2023-02-02T20:34:56.035Z,9.30
2023-02-02T20:37:26.770Z,14.45
2023-02-02T20:39:58.935Z,26.70
2023-02-02T20:42:25.721Z,26.55
2023-02-02T20:44:52.544Z,25.17
2023-02-02T20:47:20.100Z,21.33
2023-02-02T20:49:47.166Z,20.27
2023-02-02T20:52:24.181Z,9.77
2023-02-02T20:54:51.545Z,11.77
2023-02-02T20:57:18.476Z,8.82
2023-02-02T20:59:45.388Z,8.13
2023-02-02T21:02:19.910Z,5.80
2023-02-02T21:04:48.119Z,5.38
2023-02-02T21:07:19.769Z,5.30
2023-02-02T21:09:48.630Z,5.20
2023-02-02T21:12:16.180Z,6.65
2023-02-02T21:14:44.962Z,6.30
2023-02-02T21:17:15.906Z,6.78
2023-02-02T21:19:43.799Z,6.10
2023-02-02T21:22:11.890Z,6.88
2023-02-02T21:24:38.775Z,6.45
2023-02-02T21:27:05.832Z,7.22
2023-02-02T21:29:33.081Z,6.40
2023-02-02T21:32:02.534Z,6.63
2023-02-02T21:34:30.635Z,6.40
2023-02-02T21:36:58.724Z,6.65
2023-02-02T21:39:28.068Z,6.97
2023-02-02T21:42:13.064Z,6.35
2023-02-02T21:44:43.501Z,6.60
2023-02-02T21:47:26.684Z,6.35
2023-02-02T21:49:59.372Z,6.68
2023-02-02T21:52:32.369Z,6.65
2023-02-02T21:54:59.977Z,7.00
2023-02-02T21:57:37.356Z,6.82
2023-02-02T22:00:33.071Z,7.22
2023-02-02T22:03:00.380Z,7.57
2023-02-02T22:05:33.800Z,6.95
2023-02-02T22:08:02.728Z,7.07
2023-02-02T22:10:38.743Z,7.45
2023-02-02T22:13:20.533Z,7.60
2023-02-02T22:15:49.400Z,7.70
2023-02-02T22:18:18.627Z,8.00
2023-02-02T22:20:48.063Z,8.88
2023-02-02T22:23:16.963Z,7.47
2023-02-02T22:25:45.057Z,7.72
2023-02-02T22:28:19.414Z,7.90
2023-02-02T22:30:46.793Z,8.10
2023-02-02T22:33:14.262Z,7.95
2023-02-02T22:35:42.442Z,7.53
2023-02-02T22:38:10.149Z,8.25
2023-02-02T22:40:37.985Z,7.68
2023-02-02T22:43:06.573Z,7.80
2023-02-02T22:45:34.845Z,8.38
2023-02-02T22:48:02.626Z,7.93
2023-02-02T22:50:31.631Z,8.10
2023-02-02T22:52:58.614Z,8.10
2023-02-02T22:55:25.742Z,7.38
2023-02-02T22:57:53.222Z,7.68
2023-02-02T23:00:22.819Z,7.30
2023-02-02T23:02:49.731Z,7.50
2023-02-02T23:05:18.573Z,7.25
2023-02-02T23:07:45.873Z,7.07
2023-02-02T23:10:15.697Z,6.55
2023-02-02T23:12:43.462Z,6.63
2023-02-02T23:15:11.023Z,6.65
2023-02-02T23:17:37.694Z,6.00
2023-02-02T23:20:08.279Z,5.57
2023-02-02T23:22:34.991Z,7.10
2023-02-02T23:25:01.596Z,6.10
2023-02-02T23:27:28.460Z,5.57
2023-02-02T23:29:55.057Z,5.47
2023-02-02T23:32:21.709Z,5.22
2023-02-02T23:34:48.657Z,5.82
2023-02-02T23:37:15.447Z,5.18
2023-02-02T23:39:42.080Z,5.00
2023-02-02T23:42:09.259Z,4.72
2023-02-02T23:44:35.937Z,4.18
2023-02-02T23:47:03.099Z,3.80
2023-02-02T23:49:32.373Z,4.38
2023-02-02T23:51:59.478Z,4.10
2023-02-02T23:54:26.808Z,4.82
2023-02-02T23:56:53.544Z,5.07
2023-02-02T23:59:20.191Z,4.20
